sensor_id;sensor_type;location;lat;lon;timestamp;temperature;humidity
40868;DHT22;26586;50.708;22.412;2023-04-28T00:01:10;15.70;42.90
40868;DHT22;26586;50.708;22.412;2023-04-28T00:03:36;15.70;43.00
40868;DHT22;26586;50.708;22.412;2023-04-28T00:06:03;15.70;42.90
40868;DHT22;26586;50.708;22.412;2023-04-28T00:08:29;15.70;43.10
40868;DHT22;26586;50.708;22.412;2023-04-28T00:10:56;15.60;42.90
40868;DHT22;26586;50.708;22.412;2023-04-28T00:13:22;15.60;42.80
40868;DHT22;26586;50.708;22.412;2023-04-28T00:15:49;15.60;42.90
40868;DHT22;26586;50.708;22.412;2023-04-28T00:18:18;15.60;42.90
40868;DHT22;26586;50.708;22.412;2023-04-28T00:20:44;15.60;43.10
40868;DHT22;26586;50.708;22.412;2023-04-28T00:23:10;15.50;43.10
40868;DHT22;26586;50.708;22.412;2023-04-28T00:25:37;15.50;43.10
40868;DHT22;26586;50.708;22.412;2023-04-28T00:28:03;15.50;43.20
40868;DHT22;26586;50.708;22.412;2023-04-28T00:30:30;15.50;43.50
40868;DHT22;26586;50.708;22.412;2023-04-28T00:32:56;15.50;43.40
40868;DHT22;26586;50.708;22.412;2023-04-28T00:35:22;15.50;44.20
40868;DHT22;26586;50.708;22.412;2023-04-28T00:37:48;15.50;43.60
40868;DHT22;26586;50.708;22.412;2023-04-28T00:40:15;15.40;43.50
40868;DHT22;26586;50.708;22.412;2023-04-28T00:42:41;15.50;43.70
40868;DHT22;26586;50.708;22.412;2023-04-28T00:45:07;15.40;43.60
40868;DHT22;26586;50.708;22.412;2023-04-28T00:47:34;15.40;43.60
40868;DHT22;26586;50.708;22.412;2023-04-28T00:50:02;15.40;43.40
40868;DHT22;26586;50.708;22.412;2023-04-28T00:52:30;15.40;43.20
40868;DHT22;26586;50.708;22.412;2023-04-28T00:54:57;15.40;43.20
40868;DHT22;26586;50.708;22.412;2023-04-28T00:57:23;15.30;43.20
40868;DHT22;26586;50.708;22.412;2023-04-28T00:59:49;15.30;43.10
40868;DHT22;26586;50.708;22.412;2023-04-28T01:02:16;15.40;43.20
40868;DHT22;26586;50.708;22.412;2023-04-28T01:04:44;15.30;43.20
40868;DHT22;26586;50.708;22.412;2023-04-28T01:07:10;15.30;43.40
40868;DHT22;26586;50.708;22.412;2023-04-28T01:09:37;15.30;43.50
40868;DHT22;26586;50.708;22.412;2023-04-28T01:12:03;15.30;43.60
40868;DHT22;26586;50.708;22.412;2023-04-28T01:14:30;15.30;43.60
40868;DHT22;26586;50.708;22.412;2023-04-28T01:16:57;15.30;43.60
40868;DHT22;26586;50.708;22.412;2023-04-28T01:19:23;15.20;43.50
40868;DHT22;26586;50.708;22.412;2023-04-28T01:21:49;15.30;43.60
40868;DHT22;26586;50.708;22.412;2023-04-28T01:24:16;15.20;43.60
40868;DHT22;26586;50.708;22.412;2023-04-28T01:26:43;15.30;43.40
40868;DHT22;26586;50.708;22.412;2023-04-28T01:29:10;15.20;43.10
40868;DHT22;26586;50.708;22.412;2023-04-28T01:31:36;15.20;43.10
40868;DHT22;26586;50.708;22.412;2023-04-28T01:34:03;15.20;43.20
40868;DHT22;26586;50.708;22.412;2023-04-28T01:36:29;15.20;43.10
40868;DHT22;26586;50.708;22.412;2023-04-28T01:38:55;15.10;43.00
40868;DHT22;26586;50.708;22.412;2023-04-28T01:41:21;15.10;43.20
40868;DHT22;26586;50.708;22.412;2023-04-28T01:43:48;15.10;43.50
40868;DHT22;26586;50.708;22.412;2023-04-28T01:46:14;15.10;43.30
40868;DHT22;26586;50.708;22.412;2023-04-28T01:48:40;15.10;43.30
40868;DHT22;26586;50.708;22.412;2023-04-28T01:51:06;15.10;43.20
40868;DHT22;26586;50.708;22.412;2023-04-28T01:53:33;15.00;42.90
40868;DHT22;26586;50.708;22.412;2023-04-28T01:55:59;15.00;42.70
40868;DHT22;26586;50.708;22.412;2023-04-28T01:58:25;15.00;42.70
40868;DHT22;26586;50.708;22.412;2023-04-28T02:00:51;15.00;42.80
40868;DHT22;26586;50.708;22.412;2023-04-28T02:03:18;15.00;43.10
40868;DHT22;26586;50.708;22.412;2023-04-28T02:05:44;15.00;43.20
40868;DHT22;26586;50.708;22.412;2023-04-28T02:08:10;15.00;43.10
40868;DHT22;26586;50.708;22.412;2023-04-28T02:10:36;15.00;42.90
40868;DHT22;26586;50.708;22.412;2023-04-28T02:13:03;14.90;42.90
40868;DHT22;26586;50.708;22.412;2023-04-28T02:15:29;14.90;42.80
40868;DHT22;26586;50.708;22.412;2023-04-28T02:17:55;14.90;42.70
40868;DHT22;26586;50.708;22.412;2023-04-28T02:20:21;14.90;42.60
40868;DHT22;26586;50.708;22.412;2023-04-28T02:22:48;14.90;42.60
40868;DHT22;26586;50.708;22.412;2023-04-28T02:25:14;14.90;42.60
40868;DHT22;26586;50.708;22.412;2023-04-28T02:27:40;14.90;42.60
40868;DHT22;26586;50.708;22.412;2023-04-28T02:30:07;14.80;42.60
40868;DHT22;26586;50.708;22.412;2023-04-28T02:32:34;14.80;42.70
40868;DHT22;26586;50.708;22.412;2023-04-28T02:35:00;14.80;42.80
40868;DHT22;26586;50.708;22.412;2023-04-28T02:37:26;14.80;42.80
40868;DHT22;26586;50.708;22.412;2023-04-28T02:39:52;14.80;42.70
40868;DHT22;26586;50.708;22.412;2023-04-28T02:42:18;14.80;42.90
40868;DHT22;26586;50.708;22.412;2023-04-28T02:44:45;14.80;43.00
40868;DHT22;26586;50.708;22.412;2023-04-28T02:47:11;14.70;43.00
40868;DHT22;26586;50.708;22.412;2023-04-28T02:49:37;14.70;43.30
40868;DHT22;26586;50.708;22.412;2023-04-28T02:52:04;14.70;43.30
40868;DHT22;26586;50.708;22.412;2023-04-28T02:54:30;14.70;43.50
40868;DHT22;26586;50.708;22.412;2023-04-28T02:56:57;14.70;43.70
40868;DHT22;26586;50.708;22.412;2023-04-28T02:59:24;14.70;43.80
40868;DHT22;26586;50.708;22.412;2023-04-28T03:01:50;14.70;43.80
40868;DHT22;26586;50.708;22.412;2023-04-28T03:04:16;14.70;43.90
40868;DHT22;26586;50.708;22.412;2023-04-28T03:06:43;14.70;43.90
40868;DHT22;26586;50.708;22.412;2023-04-28T03:09:10;14.70;43.90
40868;DHT22;26586;50.708;22.412;2023-04-28T03:11:36;14.70;43.90
40868;DHT22;26586;50.708;22.412;2023-04-28T03:14:02;14.70;44.00
40868;DHT22;26586;50.708;22.412;2023-04-28T03:16:29;14.70;44.10
40868;DHT22;26586;50.708;22.412;2023-04-28T03:18:55;14.70;44.10
40868;DHT22;26586;50.708;22.412;2023-04-28T03:21:21;14.70;44.40
40868;DHT22;26586;50.708;22.412;2023-04-28T03:23:47;14.70;44.20
40868;DHT22;26586;50.708;22.412;2023-04-28T03:26:14;14.70;44.60
40868;DHT22;26586;50.708;22.412;2023-04-28T03:28:40;14.70;44.20
40868;DHT22;26586;50.708;22.412;2023-04-28T03:31:06;14.70;44.70
40868;DHT22;26586;50.708;22.412;2023-04-28T03:33:32;14.60;44.10
40868;DHT22;26586;50.708;22.412;2023-04-28T03:35:58;14.60;44.00
40868;DHT22;26586;50.708;22.412;2023-04-28T03:38:24;14.60;44.00
40868;DHT22;26586;50.708;22.412;2023-04-28T03:40:51;14.60;44.20
40868;DHT22;26586;50.708;22.412;2023-04-28T03:43:17;14.60;44.20
40868;DHT22;26586;50.708;22.412;2023-04-28T03:45:44;14.60;44.10
40868;DHT22;26586;50.708;22.412;2023-04-28T03:48:10;14.60;44.00
40868;DHT22;26586;50.708;22.412;2023-04-28T03:50:36;14.60;44.10
40868;DHT22;26586;50.708;22.412;2023-04-28T03:53:03;14.60;44.10
40868;DHT22;26586;50.708;22.412;2023-04-28T03:55:30;14.60;44.20
40868;DHT22;26586;50.708;22.412;2023-04-28T03:57:56;14.50;44.00
40868;DHT22;26586;50.708;22.412;2023-04-28T04:00:22;14.50;44.20
40868;DHT22;26586;50.708;22.412;2023-04-28T04:02:50;14.50;44.10
40868;DHT22;26586;50.708;22.412;2023-04-28T04:05:16;14.50;44.30
40868;DHT22;26586;50.708;22.412;2023-04-28T04:07:42;14.50;44.60
40868;DHT22;26586;50.708;22.412;2023-04-28T04:10:09;14.50;44.90
40868;DHT22;26586;50.708;22.412;2023-04-28T04:12:35;14.50;44.70
40868;DHT22;26586;50.708;22.412;2023-04-28T04:15:01;14.50;44.80
40868;DHT22;26586;50.708;22.412;2023-04-28T04:17:28;14.50;47.40
40868;DHT22;26586;50.708;22.412;2023-04-28T04:19:55;14.50;45.10
40868;DHT22;26586;50.708;22.412;2023-04-28T04:22:21;14.50;45.10
40868;DHT22;26586;50.708;22.412;2023-04-28T04:24:47;14.50;45.10
40868;DHT22;26586;50.708;22.412;2023-04-28T04:27:13;14.50;45.40
40868;DHT22;26586;50.708;22.412;2023-04-28T04:29:40;14.60;45.80
40868;DHT22;26586;50.708;22.412;2023-04-28T04:32:06;14.50;46.50
40868;DHT22;26586;50.708;22.412;2023-04-28T04:34:33;14.60;47.60
40868;DHT22;26586;50.708;22.412;2023-04-28T04:36:59;14.60;48.40
40868;DHT22;26586;50.708;22.412;2023-04-28T04:39:25;14.60;47.20
40868;DHT22;26586;50.708;22.412;2023-04-28T04:41:51;14.70;47.60
40868;DHT22;26586;50.708;22.412;2023-04-28T04:44:18;14.70;47.70
40868;DHT22;26586;50.708;22.412;2023-04-28T04:46:45;14.70;47.90
40868;DHT22;26586;50.708;22.412;2023-04-28T04:49:12;14.80;49.40
40868;DHT22;26586;50.708;22.412;2023-04-28T04:51:38;14.80;50.00
40868;DHT22;26586;50.708;22.412;2023-04-28T04:54:04;14.80;48.80
40868;DHT22;26586;50.708;22.412;2023-04-28T04:56:30;14.90;50.10
40868;DHT22;26586;50.708;22.412;2023-04-28T04:58:57;14.90;49.50
40868;DHT22;26586;50.708;22.412;2023-04-28T05:01:23;14.90;48.30
40868;DHT22;26586;50.708;22.412;2023-04-28T05:03:49;15.00;48.40
40868;DHT22;26586;50.708;22.412;2023-04-28T05:06:15;15.00;48.80
40868;DHT22;26586;50.708;22.412;2023-04-28T05:08:42;15.00;50.60
40868;DHT22;26586;50.708;22.412;2023-04-28T05:11:08;15.10;51.00
40868;DHT22;26586;50.708;22.412;2023-04-28T05:13:34;15.10;52.40
40868;DHT22;26586;50.708;22.412;2023-04-28T05:16:00;15.10;53.40
40868;DHT22;26586;50.708;22.412;2023-04-28T05:18:27;15.20;51.50
40868;DHT22;26586;50.708;22.412;2023-04-28T05:20:53;15.30;51.80
40868;DHT22;26586;50.708;22.412;2023-04-28T05:23:19;15.30;53.40
40868;DHT22;26586;50.708;22.412;2023-04-28T05:25:45;15.30;53.00
40868;DHT22;26586;50.708;22.412;2023-04-28T05:28:12;15.40;54.50
40868;DHT22;26586;50.708;22.412;2023-04-28T05:30:38;15.40;55.00
40868;DHT22;26586;50.708;22.412;2023-04-28T05:33:04;15.50;55.80
40868;DHT22;26586;50.708;22.412;2023-04-28T05:35:30;15.50;53.10
40868;DHT22;26586;50.708;22.412;2023-04-28T05:38:00;15.50;51.50
40868;DHT22;26586;50.708;22.412;2023-04-28T05:40:26;15.60;53.50
40868;DHT22;26586;50.708;22.412;2023-04-28T05:42:53;15.60;54.30
40868;DHT22;26586;50.708;22.412;2023-04-28T05:45:19;15.70;54.40
40868;DHT22;26586;50.708;22.412;2023-04-28T05:47:46;15.70;54.20
40868;DHT22;26586;50.708;22.412;2023-04-28T05:50:12;15.80;53.90
40868;DHT22;26586;50.708;22.412;2023-04-28T05:52:39;15.80;52.90
40868;DHT22;26586;50.708;22.412;2023-04-28T05:55:05;15.80;53.20
40868;DHT22;26586;50.708;22.412;2023-04-28T05:57:32;15.90;52.50
40868;DHT22;26586;50.708;22.412;2023-04-28T05:59:59;15.90;52.70
40868;DHT22;26586;50.708;22.412;2023-04-28T06:02:25;16.00;54.00
40868;DHT22;26586;50.708;22.412;2023-04-28T06:04:51;16.00;52.60
40868;DHT22;26586;50.708;22.412;2023-04-28T06:07:17;16.10;53.20
40868;DHT22;26586;50.708;22.412;2023-04-28T06:09:43;16.10;51.60
40868;DHT22;26586;50.708;22.412;2023-04-28T06:12:10;16.10;50.70
40868;DHT22;26586;50.708;22.412;2023-04-28T06:14:36;16.20;47.00
40868;DHT22;26586;50.708;22.412;2023-04-28T06:17:03;16.20;46.80
40868;DHT22;26586;50.708;22.412;2023-04-28T06:19:29;16.20;48.80
40868;DHT22;26586;50.708;22.412;2023-04-28T06:21:55;16.30;49.50
40868;DHT22;26586;50.708;22.412;2023-04-28T06:24:21;16.30;51.20
40868;DHT22;26586;50.708;22.412;2023-04-28T06:26:48;16.30;49.30
40868;DHT22;26586;50.708;22.412;2023-04-28T06:29:14;16.40;49.50
40868;DHT22;26586;50.708;22.412;2023-04-28T06:31:40;16.40;50.70
40868;DHT22;26586;50.708;22.412;2023-04-28T06:34:06;16.40;50.70
40868;DHT22;26586;50.708;22.412;2023-04-28T06:36:33;16.50;50.10
40868;DHT22;26586;50.708;22.412;2023-04-28T06:38:59;16.50;52.10
40868;DHT22;26586;50.708;22.412;2023-04-28T06:41:26;16.60;51.80
40868;DHT22;26586;50.708;22.412;2023-04-28T06:43:53;16.60;52.30
40868;DHT22;26586;50.708;22.412;2023-04-28T06:46:20;16.70;51.70
40868;DHT22;26586;50.708;22.412;2023-04-28T06:48:46;16.80;53.50
40868;DHT22;26586;50.708;22.412;2023-04-28T06:51:13;16.80;53.30
40868;DHT22;26586;50.708;22.412;2023-04-28T06:53:39;16.90;52.10
40868;DHT22;26586;50.708;22.412;2023-04-28T06:56:06;16.90;56.80
40868;DHT22;26586;50.708;22.412;2023-04-28T06:58:32;17.00;53.20
40868;DHT22;26586;50.708;22.412;2023-04-28T07:00:59;17.10;53.90
40868;DHT22;26586;50.708;22.412;2023-04-28T07:03:26;17.20;45.80
40868;DHT22;26586;50.708;22.412;2023-04-28T07:05:52;17.20;49.00
40868;DHT22;26586;50.708;22.412;2023-04-28T07:08:18;17.30;54.80
40868;DHT22;26586;50.708;22.412;2023-04-28T07:10:45;17.40;50.60
40868;DHT22;26586;50.708;22.412;2023-04-28T07:13:11;17.40;45.90
40868;DHT22;26586;50.708;22.412;2023-04-28T07:15:37;17.50;42.80
40868;DHT22;26586;50.708;22.412;2023-04-28T07:18:03;17.60;42.90
40868;DHT22;26586;50.708;22.412;2023-04-28T07:20:30;17.60;42.00
40868;DHT22;26586;50.708;22.412;2023-04-28T07:22:59;17.70;41.00
40868;DHT22;26586;50.708;22.412;2023-04-28T07:25:25;17.80;40.50
40868;DHT22;26586;50.708;22.412;2023-04-28T07:27:52;17.80;39.70
40868;DHT22;26586;50.708;22.412;2023-04-28T07:30:19;17.90;40.80
40868;DHT22;26586;50.708;22.412;2023-04-28T07:32:46;18.00;39.80
40868;DHT22;26586;50.708;22.412;2023-04-28T07:35:13;18.00;39.60
40868;DHT22;26586;50.708;22.412;2023-04-28T07:37:39;18.10;39.10
40868;DHT22;26586;50.708;22.412;2023-04-28T07:40:05;18.20;40.00
40868;DHT22;26586;50.708;22.412;2023-04-28T07:42:32;18.20;41.40
40868;DHT22;26586;50.708;22.412;2023-04-28T07:45:01;18.30;39.70
40868;DHT22;26586;50.708;22.412;2023-04-28T07:47:27;18.40;39.20
40868;DHT22;26586;50.708;22.412;2023-04-28T07:49:54;18.50;38.90
40868;DHT22;26586;50.708;22.412;2023-04-28T07:52:21;18.50;38.40
40868;DHT22;26586;50.708;22.412;2023-04-28T07:54:47;18.60;38.00
40868;DHT22;26586;50.708;22.412;2023-04-28T07:57:13;18.70;37.50
40868;DHT22;26586;50.708;22.412;2023-04-28T07:59:40;18.70;37.00
40868;DHT22;26586;50.708;22.412;2023-04-28T08:02:06;18.80;36.70
40868;DHT22;26586;50.708;22.412;2023-04-28T08:04:33;18.80;36.20
40868;DHT22;26586;50.708;22.412;2023-04-28T08:07:00;18.80;35.70
40868;DHT22;26586;50.708;22.412;2023-04-28T08:09:26;18.80;35.60
40868;DHT22;26586;50.708;22.412;2023-04-28T08:11:52;18.80;35.20
40868;DHT22;26586;50.708;22.412;2023-04-28T08:14:19;18.80;34.90
40868;DHT22;26586;50.708;22.412;2023-04-28T08:16:46;18.80;34.30
40868;DHT22;26586;50.708;22.412;2023-04-28T08:19:13;18.90;34.10
40868;DHT22;26586;50.708;22.412;2023-04-28T08:21:39;18.90;34.50
40868;DHT22;26586;50.708;22.412;2023-04-28T08:24:06;18.90;34.20
40868;DHT22;26586;50.708;22.412;2023-04-28T08:26:37;19.00;34.30
40868;DHT22;26586;50.708;22.412;2023-04-28T08:29:04;19.00;34.50
40868;DHT22;26586;50.708;22.412;2023-04-28T08:31:30;19.00;34.00
40868;DHT22;26586;50.708;22.412;2023-04-28T08:33:57;19.00;33.70
40868;DHT22;26586;50.708;22.412;2023-04-28T08:36:24;19.10;35.80
40868;DHT22;26586;50.708;22.412;2023-04-28T08:38:54;19.10;35.50
40868;DHT22;26586;50.708;22.412;2023-04-28T08:41:20;19.10;33.30
40868;DHT22;26586;50.708;22.412;2023-04-28T08:43:47;19.10;33.20
40868;DHT22;26586;50.708;22.412;2023-04-28T08:46:14;19.10;33.00
40868;DHT22;26586;50.708;22.412;2023-04-28T08:48:43;19.10;36.90
40868;DHT22;26586;50.708;22.412;2023-04-28T08:51:24;19.10;39.30
40868;DHT22;26586;50.708;22.412;2023-04-28T08:53:53;19.10;34.60
40868;DHT22;26586;50.708;22.412;2023-04-28T08:56:20;19.10;34.00
40868;DHT22;26586;50.708;22.412;2023-04-28T08:58:51;19.20;33.60
40868;DHT22;26586;50.708;22.412;2023-04-28T09:01:18;19.20;33.20
40868;DHT22;26586;50.708;22.412;2023-04-28T09:03:45;19.10;32.40
40868;DHT22;26586;50.708;22.412;2023-04-28T09:06:12;19.10;32.20
40868;DHT22;26586;50.708;22.412;2023-04-28T09:08:39;19.10;31.90
40868;DHT22;26586;50.708;22.412;2023-04-28T09:11:06;19.10;32.00
40868;DHT22;26586;50.708;22.412;2023-04-28T09:13:34;19.10;32.20
40868;DHT22;26586;50.708;22.412;2023-04-28T09:16:02;19.10;33.00
40868;DHT22;26586;50.708;22.412;2023-04-28T09:18:31;19.10;37.40
40868;DHT22;26586;50.708;22.412;2023-04-28T09:21:16;19.10;37.30
40868;DHT22;26586;50.708;22.412;2023-04-28T09:23:47;19.10;36.00
40868;DHT22;26586;50.708;22.412;2023-04-28T09:26:16;19.10;32.90
40868;DHT22;26586;50.708;22.412;2023-04-28T09:28:43;19.10;32.50
40868;DHT22;26586;50.708;22.412;2023-04-28T09:31:25;19.10;32.20
40868;DHT22;26586;50.708;22.412;2023-04-28T09:33:58;19.10;32.30
40868;DHT22;26586;50.708;22.412;2023-04-28T09:36:31;19.10;31.80
40868;DHT22;26586;50.708;22.412;2023-04-28T09:38:57;19.10;32.10
40868;DHT22;26586;50.708;22.412;2023-04-28T09:41:44;19.10;32.50
40868;DHT22;26586;50.708;22.412;2023-04-28T09:44:18;19.10;31.60
40868;DHT22;26586;50.708;22.412;2023-04-28T09:46:46;19.10;32.10
40868;DHT22;26586;50.708;22.412;2023-04-28T09:49:13;19.10;34.40
40868;DHT22;26586;50.708;22.412;2023-04-28T09:51:40;19.10;32.70
40868;DHT22;26586;50.708;22.412;2023-04-28T09:54:07;19.10;32.60
40868;DHT22;26586;50.708;22.412;2023-04-28T09:56:34;19.10;32.40
40868;DHT22;26586;50.708;22.412;2023-04-28T09:59:03;19.10;31.80
40868;DHT22;26586;50.708;22.412;2023-04-28T10:01:39;19.10;32.00
40868;DHT22;26586;50.708;22.412;2023-04-28T10:04:06;19.10;32.60
40868;DHT22;26586;50.708;22.412;2023-04-28T10:06:34;19.10;32.90
40868;DHT22;26586;50.708;22.412;2023-04-28T10:09:04;19.10;33.40
40868;DHT22;26586;50.708;22.412;2023-04-28T10:11:32;19.10;34.20
40868;DHT22;26586;50.708;22.412;2023-04-28T10:13:59;19.10;32.60
40868;DHT22;26586;50.708;22.412;2023-04-28T10:16:29;19.10;32.60
40868;DHT22;26586;50.708;22.412;2023-04-28T10:18:56;19.10;33.10
40868;DHT22;26586;50.708;22.412;2023-04-28T10:21:23;19.10;32.90
40868;DHT22;26586;50.708;22.412;2023-04-28T10:24:08;19.10;32.60
40868;DHT22;26586;50.708;22.412;2023-04-28T10:27:02;19.20;33.70
40868;DHT22;26586;50.708;22.412;2023-04-28T10:29:30;19.20;33.70
40868;DHT22;26586;50.708;22.412;2023-04-28T10:34:42;19.20;32.20
40868;DHT22;26586;50.708;22.412;2023-04-28T10:37:09;19.20;31.80
40868;DHT22;26586;50.708;22.412;2023-04-28T10:39:36;19.20;33.20
40868;DHT22;26586;50.708;22.412;2023-04-28T10:42:02;19.20;33.60
40868;DHT22;26586;50.708;22.412;2023-04-28T10:47:02;19.30;34.20
40868;DHT22;26586;50.708;22.412;2023-04-28T10:55:31;19.40;39.10
40868;DHT22;26586;50.708;22.412;2023-04-28T11:00:41;19.40;36.60
40868;DHT22;26586;50.708;22.412;2023-04-28T11:03:53;19.50;37.20
40868;DHT22;26586;50.708;22.412;2023-04-28T11:06:30;19.50;36.60
40868;DHT22;26586;50.708;22.412;2023-04-28T11:14:37;19.60;32.90
40868;DHT22;26586;50.708;22.412;2023-04-28T11:17:07;19.60;32.10
40868;DHT22;26586;50.708;22.412;2023-04-28T11:19:42;19.60;38.30
40868;DHT22;26586;50.708;22.412;2023-04-28T11:22:20;19.70;40.40
40868;DHT22;26586;50.708;22.412;2023-04-28T11:24:59;19.70;35.90
40868;DHT22;26586;50.708;22.412;2023-04-28T11:27:30;19.70;33.60
40868;DHT22;26586;50.708;22.412;2023-04-28T11:29:57;19.70;35.70
40868;DHT22;26586;50.708;22.412;2023-04-28T11:32:25;19.70;35.40
40868;DHT22;26586;50.708;22.412;2023-04-28T11:34:51;19.70;40.50
40868;DHT22;26586;50.708;22.412;2023-04-28T11:37:18;19.70;39.50
40868;DHT22;26586;50.708;22.412;2023-04-28T11:39:49;19.80;45.90
40868;DHT22;26586;50.708;22.412;2023-04-28T11:42:16;19.80;41.30
40868;DHT22;26586;50.708;22.412;2023-04-28T11:44:49;19.80;40.80
40868;DHT22;26586;50.708;22.412;2023-04-28T11:47:29;19.80;37.30
40868;DHT22;26586;50.708;22.412;2023-04-28T11:49:56;19.90;36.30
40868;DHT22;26586;50.708;22.412;2023-04-28T11:52:24;19.80;34.40
40868;DHT22;26586;50.708;22.412;2023-04-28T11:54:57;19.90;35.20
40868;DHT22;26586;50.708;22.412;2023-04-28T11:57:24;19.90;36.00
40868;DHT22;26586;50.708;22.412;2023-04-28T11:59:52;19.90;34.90
40868;DHT22;26586;50.708;22.412;2023-04-28T12:02:26;19.90;35.20
40868;DHT22;26586;50.708;22.412;2023-04-28T12:05:06;19.90;34.20
40868;DHT22;26586;50.708;22.412;2023-04-28T12:07:46;19.90;33.20
40868;DHT22;26586;50.708;22.412;2023-04-28T12:10:14;19.90;33.10
40868;DHT22;26586;50.708;22.412;2023-04-28T12:12:42;19.90;32.70
40868;DHT22;26586;50.708;22.412;2023-04-28T12:15:09;19.90;32.20
40868;DHT22;26586;50.708;22.412;2023-04-28T12:17:38;19.90;34.40
40868;DHT22;26586;50.708;22.412;2023-04-28T12:20:37;20.00;37.10
40868;DHT22;26586;50.708;22.412;2023-04-28T12:23:04;20.00;38.00
40868;DHT22;26586;50.708;22.412;2023-04-28T12:25:32;20.00;37.40
40868;DHT22;26586;50.708;22.412;2023-04-28T12:28:08;20.00;34.30
40868;DHT22;26586;50.708;22.412;2023-04-28T12:30:38;20.00;34.10
40868;DHT22;26586;50.708;22.412;2023-04-28T12:33:25;20.00;32.50
40868;DHT22;26586;50.708;22.412;2023-04-28T12:35:59;20.00;32.80
40868;DHT22;26586;50.708;22.412;2023-04-28T12:38:30;20.00;35.00
40868;DHT22;26586;50.708;22.412;2023-04-28T12:40:58;20.10;33.20
40868;DHT22;26586;50.708;22.412;2023-04-28T12:43:24;20.10;31.70
40868;DHT22;26586;50.708;22.412;2023-04-28T12:45:53;20.10;30.90
40868;DHT22;26586;50.708;22.412;2023-04-28T12:48:21;20.10;30.40
40868;DHT22;26586;50.708;22.412;2023-04-28T12:50:50;20.10;30.40
40868;DHT22;26586;50.708;22.412;2023-04-28T12:53:17;20.00;32.30
40868;DHT22;26586;50.708;22.412;2023-04-28T12:55:44;20.00;35.90
40868;DHT22;26586;50.708;22.412;2023-04-28T12:58:10;20.10;36.20
40868;DHT22;26586;50.708;22.412;2023-04-28T13:00:40;20.10;35.80
40868;DHT22;26586;50.708;22.412;2023-04-28T13:03:16;20.10;31.60
40868;DHT22;26586;50.708;22.412;2023-04-28T13:05:48;20.10;30.40
40868;DHT22;26586;50.708;22.412;2023-04-28T13:08:26;20.10;29.80
40868;DHT22;26586;50.708;22.412;2023-04-28T13:10:56;20.10;30.00
40868;DHT22;26586;50.708;22.412;2023-04-28T13:13:27;20.00;29.80
40868;DHT22;26586;50.708;22.412;2023-04-28T13:16:10;20.10;29.90
40868;DHT22;26586;50.708;22.412;2023-04-28T13:18:56;20.10;33.70
40868;DHT22;26586;50.708;22.412;2023-04-28T13:21:27;20.10;32.30
40868;DHT22;26586;50.708;22.412;2023-04-28T13:23:59;20.10;32.00
40868;DHT22;26586;50.708;22.412;2023-04-28T13:26:36;20.10;31.50
40868;DHT22;26586;50.708;22.412;2023-04-28T13:29:09;20.10;33.10
40868;DHT22;26586;50.708;22.412;2023-04-28T13:31:40;20.10;33.20
40868;DHT22;26586;50.708;22.412;2023-04-28T13:34:07;20.10;34.80
40868;DHT22;26586;50.708;22.412;2023-04-28T13:36:47;20.10;34.10
40868;DHT22;26586;50.708;22.412;2023-04-28T13:39:20;20.10;36.00
40868;DHT22;26586;50.708;22.412;2023-04-28T13:41:49;20.10;34.80
40868;DHT22;26586;50.708;22.412;2023-04-28T13:44:18;20.10;34.40
40868;DHT22;26586;50.708;22.412;2023-04-28T13:46:45;20.10;33.70
40868;DHT22;26586;50.708;22.412;2023-04-28T13:49:11;20.10;34.90
40868;DHT22;26586;50.708;22.412;2023-04-28T13:51:38;20.10;35.90
40868;DHT22;26586;50.708;22.412;2023-04-28T13:54:04;20.10;34.60
40868;DHT22;26586;50.708;22.412;2023-04-28T13:56:34;20.10;36.20
40868;DHT22;26586;50.708;22.412;2023-04-28T13:59:01;20.10;35.00
40868;DHT22;26586;50.708;22.412;2023-04-28T14:01:28;20.10;34.80
40868;DHT22;26586;50.708;22.412;2023-04-28T14:03:55;20.10;33.50
40868;DHT22;26586;50.708;22.412;2023-04-28T14:06:21;20.10;32.30
40868;DHT22;26586;50.708;22.412;2023-04-28T14:08:47;20.10;31.90
40868;DHT22;26586;50.708;22.412;2023-04-28T14:11:14;20.10;31.30
40868;DHT22;26586;50.708;22.412;2023-04-28T14:13:41;20.10;31.00
40868;DHT22;26586;50.708;22.412;2023-04-28T14:16:07;20.10;30.70
40868;DHT22;26586;50.708;22.412;2023-04-28T14:18:34;20.10;30.80
40868;DHT22;26586;50.708;22.412;2023-04-28T14:21:01;20.10;31.40
40868;DHT22;26586;50.708;22.412;2023-04-28T14:23:29;20.10;31.20
40868;DHT22;26586;50.708;22.412;2023-04-28T14:25:55;20.10;30.90
40868;DHT22;26586;50.708;22.412;2023-04-28T14:28:25;20.10;30.20
40868;DHT22;26586;50.708;22.412;2023-04-28T14:30:53;20.10;29.80
40868;DHT22;26586;50.708;22.412;2023-04-28T14:33:19;20.10;29.90
40868;DHT22;26586;50.708;22.412;2023-04-28T14:35:46;20.10;29.80
40868;DHT22;26586;50.708;22.412;2023-04-28T14:38:12;20.00;29.70
40868;DHT22;26586;50.708;22.412;2023-04-28T14:40:40;20.00;31.60
40868;DHT22;26586;50.708;22.412;2023-04-28T14:43:09;20.00;33.50
40868;DHT22;26586;50.708;22.412;2023-04-28T14:45:36;20.00;35.10
40868;DHT22;26586;50.708;22.412;2023-04-28T14:48:07;20.00;35.40
40868;DHT22;26586;50.708;22.412;2023-04-28T14:50:37;20.00;32.00
40868;DHT22;26586;50.708;22.412;2023-04-28T14:53:03;20.00;31.30
40868;DHT22;26586;50.708;22.412;2023-04-28T14:55:33;20.00;31.20
40868;DHT22;26586;50.708;22.412;2023-04-28T14:58:00;20.00;33.50
40868;DHT22;26586;50.708;22.412;2023-04-28T15:00:30;20.00;31.90
40868;DHT22;26586;50.708;22.412;2023-04-28T15:02:56;20.00;32.20
40868;DHT22;26586;50.708;22.412;2023-04-28T15:05:22;20.00;30.60
40868;DHT22;26586;50.708;22.412;2023-04-28T15:07:49;20.00;30.60
40868;DHT22;26586;50.708;22.412;2023-04-28T15:10:21;19.90;31.50
40868;DHT22;26586;50.708;22.412;2023-04-28T15:12:48;19.90;30.30
40868;DHT22;26586;50.708;22.412;2023-04-28T15:15:15;19.90;32.20
40868;DHT22;26586;50.708;22.412;2023-04-28T15:17:41;19.90;30.50
40868;DHT22;26586;50.708;22.412;2023-04-28T15:20:08;19.90;32.70
40868;DHT22;26586;50.708;22.412;2023-04-28T15:22:34;19.90;32.50
40868;DHT22;26586;50.708;22.412;2023-04-28T15:25:02;20.00;31.40
40868;DHT22;26586;50.708;22.412;2023-04-28T15:27:31;19.90;30.90
40868;DHT22;26586;50.708;22.412;2023-04-28T15:29:57;19.90;30.60
40868;DHT22;26586;50.708;22.412;2023-04-28T15:32:24;19.90;30.80
40868;DHT22;26586;50.708;22.412;2023-04-28T15:34:52;19.90;31.20
40868;DHT22;26586;50.708;22.412;2023-04-28T15:40:04;19.90;35.00
40868;DHT22;26586;50.708;22.412;2023-04-28T15:42:30;19.90;33.80